DAOO/ORN METAR and TAF weather

Enter ICAO airport designator
Station Type Date Time Source
DAOO METAR 2018/10/16 20:30 UTC NOAA

DAOO 162030Z 29002KT 9000 FEW023 BKN026 17/16 Q1014


Station Type Date Time Source
DAOO Decoded METAR 2018/10/16 20:30 UTC NOAA

Oran / Es Senia, Algeria (DAOO) 35-38N 000-36W 90M
Oct 16, 2018 - 04:30 PM EDT / 2018.10.16 2030 UTC
Wind: from the WNW (290 degrees) at 2 MPH (2 KT):0
Visibility: 5 mile(s):0
Sky conditions: mostly cloudy
Temperature: 62 F (17 C)
Dew Point: 60 F (16 C)
Relative Humidity: 93%
Pressure (altimeter): 29.94 in. Hg (1014 hPa)
ob: DAOO 162030Z 29002KT 9000 FEW023 BKN026 17/16 Q1014
cycle: 20

Station Type Date Time Source
DAOO TAF 2018/10/16 18:33 UTC NOAA

TAF TAF DAOO 161700Z 1618/1718 22010KT 9999 BKN026 SCT100
TEMPO 1618/1802 RA PROB40
TEMPO 1619/1622 SHRA
BECMG 1700/1702 VRB02KT 8000 SCT016
TEMPO 1704/1709 4000 RABR SCT010 BKN020
BECMG 36010KT


Example: see airport list